sensor_id;sensor_type;location;lat;lon;timestamp;pressure;altitude;pressure_sealevel;temperature;humidity
17311;BME280;8773;43.300;0.394;2023-03-13T00:01:10;99602.59;;;13.27;76.17
17311;BME280;8773;43.300;0.394;2023-03-13T00:03:38;99598.53;;;13.31;76.22
17311;BME280;8773;43.300;0.394;2023-03-13T00:06:08;99600.34;;;13.39;75.48
17311;BME280;8773;43.300;0.394;2023-03-13T00:08:37;99601.00;;;13.41;75.26
17311;BME280;8773;43.300;0.394;2023-03-13T00:11:06;99592.34;;;13.31;75.22
17311;BME280;8773;43.300;0.394;2023-03-13T00:13:35;99602.78;;;13.26;75.56
17311;BME280;8773;43.300;0.394;2023-03-13T00:16:05;99585.63;;;13.35;74.94
17311;BME280;8773;43.300;0.394;2023-03-13T00:18:33;99582.09;;;13.34;74.69
17311;BME280;8773;43.300;0.394;2023-03-13T00:21:03;99593.66;;;13.35;74.74
17311;BME280;8773;43.300;0.394;2023-03-13T00:23:35;99574.53;;;13.38;74.96
17311;BME280;8773;43.300;0.394;2023-03-13T00:26:05;99574.69;;;12.83;76.66
17311;BME280;8773;43.300;0.394;2023-03-13T00:28:34;99569.06;;;12.69;77.51
17311;BME280;8773;43.300;0.394;2023-03-13T00:31:03;99567.13;;;12.86;76.76
17311;BME280;8773;43.300;0.394;2023-03-13T00:33:32;99551.31;;;12.99;76.18
17311;BME280;8773;43.300;0.394;2023-03-13T00:36:00;99561.50;;;12.73;76.86
17311;BME280;8773;43.300;0.394;2023-03-13T00:38:29;99548.50;;;12.93;76.07
17311;BME280;8773;43.300;0.394;2023-03-13T00:41:00;99533.69;;;13.05;75.48
17311;BME280;8773;43.300;0.394;2023-03-13T00:43:28;99533.66;;;13.13;75.45
17311;BME280;8773;43.300;0.394;2023-03-13T00:45:57;99533.00;;;13.11;74.93
17311;BME280;8773;43.300;0.394;2023-03-13T00:48:25;99533.16;;;13.10;75.31
17311;BME280;8773;43.300;0.394;2023-03-13T00:50:53;99528.50;;;13.03;74.84
17311;BME280;8773;43.300;0.394;2023-03-13T00:53:22;99531.69;;;13.07;75.01
17311;BME280;8773;43.300;0.394;2023-03-13T00:55:51;99526.44;;;13.14;74.69
17311;BME280;8773;43.300;0.394;2023-03-13T00:58:22;99530.53;;;13.01;74.83
17311;BME280;8773;43.300;0.394;2023-03-13T01:00:50;99528.88;;;13.00;74.94
17311;BME280;8773;43.300;0.394;2023-03-13T01:03:19;99531.69;;;13.07;74.62
17311;BME280;8773;43.300;0.394;2023-03-13T01:05:54;99528.91;;;12.92;75.12
17311;BME280;8773;43.300;0.394;2023-03-13T01:08:23;99522.84;;;12.98;74.90
17311;BME280;8773;43.300;0.394;2023-03-13T01:10:57;99519.16;;;12.99;74.75
17311;BME280;8773;43.300;0.394;2023-03-13T01:13:27;99515.66;;;12.99;74.53
17311;BME280;8773;43.300;0.394;2023-03-13T01:15:55;99516.28;;;12.78;74.89
17311;BME280;8773;43.300;0.394;2023-03-13T01:18:24;99508.00;;;12.49;76.10
17311;BME280;8773;43.300;0.394;2023-03-13T01:20:52;99496.28;;;12.58;75.86
17311;BME280;8773;43.300;0.394;2023-03-13T01:23:20;99494.75;;;12.63;75.64
17311;BME280;8773;43.300;0.394;2023-03-13T01:25:48;99476.31;;;12.68;75.49
17311;BME280;8773;43.300;0.394;2023-03-13T01:28:16;99476.19;;;12.62;75.83
17311;BME280;8773;43.300;0.394;2023-03-13T01:30:45;99468.19;;;12.54;75.75
17311;BME280;8773;43.300;0.394;2023-03-13T01:33:13;99457.63;;;12.44;76.27
17311;BME280;8773;43.300;0.394;2023-03-13T01:35:41;99457.53;;;12.37;76.55
17311;BME280;8773;43.300;0.394;2023-03-13T01:38:10;99448.66;;;12.37;76.75
17311;BME280;8773;43.300;0.394;2023-03-13T01:40:39;99439.34;;;12.25;76.89
17311;BME280;8773;43.300;0.394;2023-03-13T01:43:19;99444.84;;;12.31;76.95
17311;BME280;8773;43.300;0.394;2023-03-13T01:46:00;99444.66;;;12.33;76.35
17311;BME280;8773;43.300;0.394;2023-03-13T01:48:34;99425.81;;;12.18;76.95
17311;BME280;8773;43.300;0.394;2023-03-13T01:51:07;99429.97;;;12.29;76.91
17311;BME280;8773;43.300;0.394;2023-03-13T01:53:37;99418.75;;;12.25;76.84
17311;BME280;8773;43.300;0.394;2023-03-13T01:56:12;99409.41;;;12.21;77.48
17311;BME280;8773;43.300;0.394;2023-03-13T01:58:41;99414.03;;;12.35;76.88
17311;BME280;8773;43.300;0.394;2023-03-13T02:01:11;99413.59;;;12.55;76.29
17311;BME280;8773;43.300;0.394;2023-03-13T02:03:41;99409.88;;;12.64;75.59
17311;BME280;8773;43.300;0.394;2023-03-13T02:06:10;99408.56;;;12.60;75.51
17311;BME280;8773;43.300;0.394;2023-03-13T02:08:43;99403.38;;;12.58;75.97
17311;BME280;8773;43.300;0.394;2023-03-13T02:11:20;99396.53;;;12.56;75.51
17311;BME280;8773;43.300;0.394;2023-03-13T02:13:52;99399.38;;;12.54;75.86
17311;BME280;8773;43.300;0.394;2023-03-13T02:16:22;99388.50;;;12.56;75.28
17311;BME280;8773;43.300;0.394;2023-03-13T02:18:50;99388.13;;;12.59;74.90
17311;BME280;8773;43.300;0.394;2023-03-13T02:21:27;99389.28;;;12.64;75.14
17311;BME280;8773;43.300;0.394;2023-03-13T02:24:05;99387.97;;;12.60;74.62
17311;BME280;8773;43.300;0.394;2023-03-13T02:26:39;99392.13;;;12.63;75.15
17311;BME280;8773;43.300;0.394;2023-03-13T02:29:08;99380.94;;;12.59;74.58
17311;BME280;8773;43.300;0.394;2023-03-13T02:31:45;99375.75;;;12.58;74.86
17311;BME280;8773;43.300;0.394;2023-03-13T02:34:16;99376.66;;;12.42;75.32
17311;BME280;8773;43.300;0.394;2023-03-13T02:36:46;99366.09;;;12.18;75.84
17311;BME280;8773;43.300;0.394;2023-03-13T02:39:17;99353.78;;;12.00;76.52
17311;BME280;8773;43.300;0.394;2023-03-13T02:41:47;99340.72;;;12.05;76.47
17311;BME280;8773;43.300;0.394;2023-03-13T02:44:16;99334.81;;;12.18;75.87
17311;BME280;8773;43.300;0.394;2023-03-13T02:46:45;99336.88;;;12.08;75.65
17311;BME280;8773;43.300;0.394;2023-03-13T02:49:20;99336.53;;;12.11;75.64
17311;BME280;8773;43.300;0.394;2023-03-13T02:51:49;99332.00;;;12.12;75.61
17311;BME280;8773;43.300;0.394;2023-03-13T02:54:20;99330.13;;;12.20;75.40
17311;BME280;8773;43.300;0.394;2023-03-13T02:56:54;99316.22;;;11.94;76.08
17311;BME280;8773;43.300;0.394;2023-03-13T02:59:22;99321.34;;;12.03;75.46
17311;BME280;8773;43.300;0.394;2023-03-13T03:01:51;99314.81;;;12.06;76.14
17311;BME280;8773;43.300;0.394;2023-03-13T03:04:19;99304.63;;;12.01;76.08
17311;BME280;8773;43.300;0.394;2023-03-13T03:06:49;99301.38;;;12.14;75.07
17311;BME280;8773;43.300;0.394;2023-03-13T03:09:18;99299.66;;;12.21;75.07
17311;BME280;8773;43.300;0.394;2023-03-13T03:11:46;99294.50;;;12.20;75.37
17311;BME280;8773;43.300;0.394;2023-03-13T03:14:16;99294.41;;;11.74;77.34
17311;BME280;8773;43.300;0.394;2023-03-13T03:16:44;99298.38;;;11.86;76.53
17311;BME280;8773;43.300;0.394;2023-03-13T03:19:12;99293.75;;;12.03;76.24
17311;BME280;8773;43.300;0.394;2023-03-13T03:21:41;99283.56;;;11.98;75.92
17311;BME280;8773;43.300;0.394;2023-03-13T03:24:09;99278.28;;;11.90;76.83
17311;BME280;8773;43.300;0.394;2023-03-13T03:26:37;99281.03;;;12.05;76.31
17311;BME280;8773;43.300;0.394;2023-03-13T03:29:05;99274.63;;;12.14;75.50
17311;BME280;8773;43.300;0.394;2023-03-13T03:31:35;99274.63;;;12.14;75.15
17311;BME280;8773;43.300;0.394;2023-03-13T03:34:04;99270.34;;;12.28;75.16
17311;BME280;8773;43.300;0.394;2023-03-13T03:36:32;99260.97;;;12.32;74.83
17311;BME280;8773;43.300;0.394;2023-03-13T03:39:00;99269.69;;;12.26;75.46
17311;BME280;8773;43.300;0.394;2023-03-13T03:41:28;99265.84;;;12.28;74.89
17311;BME280;8773;43.300;0.394;2023-03-13T03:43:56;99254.41;;;12.34;74.38
17311;BME280;8773;43.300;0.394;2023-03-13T03:46:24;99256.09;;;12.35;74.74
17311;BME280;8773;43.300;0.394;2023-03-13T03:48:53;99244.16;;;12.15;75.06
17311;BME280;8773;43.300;0.394;2023-03-13T03:51:22;99243.22;;;12.08;74.97
17311;BME280;8773;43.300;0.394;2023-03-13T03:53:50;99240.22;;;12.03;74.74
17311;BME280;8773;43.300;0.394;2023-03-13T03:56:18;99234.22;;;12.01;74.59
17311;BME280;8773;43.300;0.394;2023-03-13T03:58:46;99240.34;;;11.87;75.31
17311;BME280;8773;43.300;0.394;2023-03-13T04:01:14;99238.34;;;11.89;75.31
17311;BME280;8773;43.300;0.394;2023-03-13T04:03:42;99236.63;;;11.96;75.03
17311;BME280;8773;43.300;0.394;2023-03-13T04:06:11;99251.06;;;11.87;75.09
17311;BME280;8773;43.300;0.394;2023-03-13T04:08:39;99243.03;;;11.87;74.59
17311;BME280;8773;43.300;0.394;2023-03-13T04:11:07;99242.41;;;11.77;75.47
17311;BME280;8773;43.300;0.394;2023-03-13T04:13:35;99237.38;;;11.82;75.20
17311;BME280;8773;43.300;0.394;2023-03-13T04:16:06;99235.53;;;11.82;74.70
17311;BME280;8773;43.300;0.394;2023-03-13T04:18:34;99233.00;;;11.89;74.97
17311;BME280;8773;43.300;0.394;2023-03-13T04:21:04;99232.28;;;11.95;74.37
17311;BME280;8773;43.300;0.394;2023-03-13T04:23:33;99237.69;;;11.87;74.39
17311;BME280;8773;43.300;0.394;2023-03-13T04:26:01;99241.16;;;11.95;74.81
17311;BME280;8773;43.300;0.394;2023-03-13T04:28:29;99229.13;;;11.91;74.59
17311;BME280;8773;43.300;0.394;2023-03-13T04:30:58;99222.03;;;11.98;74.25
17311;BME280;8773;43.300;0.394;2023-03-13T04:33:28;99220.38;;;11.97;74.02
17311;BME280;8773;43.300;0.394;2023-03-13T04:35:56;99229.97;;;11.92;74.54
17311;BME280;8773;43.300;0.394;2023-03-13T04:38:24;99232.03;;;11.82;74.15
17311;BME280;8773;43.300;0.394;2023-03-13T04:40:54;99232.03;;;11.82;73.94
17311;BME280;8773;43.300;0.394;2023-03-13T04:43:22;99232.06;;;11.73;74.25
17311;BME280;8773;43.300;0.394;2023-03-13T04:45:51;99239.44;;;11.71;74.08
17311;BME280;8773;43.300;0.394;2023-03-13T04:48:20;99252.28;;;11.76;74.44
17311;BME280;8773;43.300;0.394;2023-03-13T04:50:48;99252.25;;;11.84;73.88
17311;BME280;8773;43.300;0.394;2023-03-13T04:53:16;99265.00;;;11.97;73.06
17311;BME280;8773;43.300;0.394;2023-03-13T04:55:46;99255.91;;;11.83;73.85
17311;BME280;8773;43.300;0.394;2023-03-13T04:58:16;99234.34;;;11.85;73.59
17311;BME280;8773;43.300;0.394;2023-03-13T05:00:44;99242.03;;;11.88;73.97
17311;BME280;8773;43.300;0.394;2023-03-13T05:03:12;99247.84;;;11.91;73.89
17311;BME280;8773;43.300;0.394;2023-03-13T05:05:40;99245.94;;;12.00;73.14
17311;BME280;8773;43.300;0.394;2023-03-13T05:08:08;99236.91;;;12.01;73.52
17311;BME280;8773;43.300;0.394;2023-03-13T05:10:36;99235.22;;;11.77;73.97
17311;BME280;8773;43.300;0.394;2023-03-13T05:13:04;99244.03;;;11.86;72.63
17311;BME280;8773;43.300;0.394;2023-03-13T05:15:34;99238.50;;;11.56;74.14
17311;BME280;8773;43.300;0.394;2023-03-13T05:18:02;99240.41;;;11.48;74.45
17311;BME280;8773;43.300;0.394;2023-03-13T05:20:30;99243.25;;;11.46;74.59
17311;BME280;8773;43.300;0.394;2023-03-13T05:22:58;99242.56;;;11.52;73.39
17311;BME280;8773;43.300;0.394;2023-03-13T05:25:26;99243.56;;;11.51;74.39
17311;BME280;8773;43.300;0.394;2023-03-13T05:27:54;99245.16;;;11.60;74.56
17311;BME280;8773;43.300;0.394;2023-03-13T05:30:22;99230.44;;;11.64;74.04
17311;BME280;8773;43.300;0.394;2023-03-13T05:32:52;99225.72;;;11.74;73.98
17311;BME280;8773;43.300;0.394;2023-03-13T05:35:20;99225.34;;;11.78;73.05
17311;BME280;8773;43.300;0.394;2023-03-13T05:37:48;99243.25;;;11.77;73.04
17311;BME280;8773;43.300;0.394;2023-03-13T05:40:16;99239.03;;;11.83;72.72
17311;BME280;8773;43.300;0.394;2023-03-13T05:42:44;99231.38;;;11.80;73.24
17311;BME280;8773;43.300;0.394;2023-03-13T05:45:12;99233.72;;;11.74;73.08
17311;BME280;8773;43.300;0.394;2023-03-13T05:47:40;99227.59;;;11.66;73.51
17311;BME280;8773;43.300;0.394;2023-03-13T05:50:10;99230.91;;;11.68;72.70
17311;BME280;8773;43.300;0.394;2023-03-13T05:52:38;99219.44;;;11.59;73.38
17311;BME280;8773;43.300;0.394;2023-03-13T05:55:07;99221.09;;;11.60;73.16
17311;BME280;8773;43.300;0.394;2023-03-13T05:57:35;99216.16;;;11.49;73.67
17311;BME280;8773;43.300;0.394;2023-03-13T06:00:04;99219.00;;;11.48;73.24
17311;BME280;8773;43.300;0.394;2023-03-13T06:02:32;99203.19;;;11.38;73.84
17311;BME280;8773;43.300;0.394;2023-03-13T06:05:00;99202.53;;;11.28;73.58
17311;BME280;8773;43.300;0.394;2023-03-13T06:07:30;99201.72;;;11.27;73.65
17311;BME280;8773;43.300;0.394;2023-03-13T06:09:58;99193.53;;;11.21;73.71
17311;BME280;8773;43.300;0.394;2023-03-13T06:12:26;99202.03;;;11.24;73.83
17311;BME280;8773;43.300;0.394;2023-03-13T06:14:55;99197.50;;;11.25;74.44
17311;BME280;8773;43.300;0.394;2023-03-13T06:17:23;99197.19;;;11.28;74.17
17311;BME280;8773;43.300;0.394;2023-03-13T06:19:51;99188.00;;;11.30;74.11
17311;BME280;8773;43.300;0.394;2023-03-13T06:22:19;99186.81;;;11.25;74.31
17311;BME280;8773;43.300;0.394;2023-03-13T06:24:49;99194.50;;;11.36;73.91
17311;BME280;8773;43.300;0.394;2023-03-13T06:27:17;99191.66;;;11.37;74.13
17311;BME280;8773;43.300;0.394;2023-03-13T06:29:45;99188.94;;;11.46;73.95
17311;BME280;8773;43.300;0.394;2023-03-13T06:32:13;99188.94;;;11.46;73.68
17311;BME280;8773;43.300;0.394;2023-03-13T06:34:41;99191.44;;;11.47;73.69
17311;BME280;8773;43.300;0.394;2023-03-13T06:37:09;99195.16;;;11.38;73.44
17311;BME280;8773;43.300;0.394;2023-03-13T06:39:37;99187.47;;;11.35;72.91
17311;BME280;8773;43.300;0.394;2023-03-13T06:42:07;99186.31;;;11.37;73.45
17311;BME280;8773;43.300;0.394;2023-03-13T06:44:35;99171.78;;;11.32;72.35
17311;BME280;8773;43.300;0.394;2023-03-13T06:47:03;99171.09;;;11.38;72.59
17311;BME280;8773;43.300;0.394;2023-03-13T06:49:31;99168.75;;;11.43;72.50
17311;BME280;8773;43.300;0.394;2023-03-13T06:51:59;99169.72;;;11.50;72.64
17311;BME280;8773;43.300;0.394;2023-03-13T06:54:27;99162.56;;;11.43;72.45
17311;BME280;8773;43.300;0.394;2023-03-13T06:56:55;99157.44;;;11.56;72.58
17311;BME280;8773;43.300;0.394;2023-03-13T06:59:25;99155.00;;;11.77;72.03
17311;BME280;8773;43.300;0.394;2023-03-13T07:01:53;99154.16;;;11.77;71.24
17311;BME280;8773;43.300;0.394;2023-03-13T07:04:21;99161.16;;;11.78;71.66
17311;BME280;8773;43.300;0.394;2023-03-13T07:06:50;99160.09;;;11.87;71.29
17311;BME280;8773;43.300;0.394;2023-03-13T07:09:18;99167.94;;;12.11;70.70
17311;BME280;8773;43.300;0.394;2023-03-13T07:11:46;99177.84;;;12.25;69.86
17311;BME280;8773;43.300;0.394;2023-03-13T07:14:14;99175.84;;;12.42;68.81
17311;BME280;8773;43.300;0.394;2023-03-13T07:16:45;99173.28;;;12.34;69.04
17311;BME280;8773;43.300;0.394;2023-03-13T07:19:13;99171.06;;;12.37;68.80
17311;BME280;8773;43.300;0.394;2023-03-13T07:21:42;99164.56;;;12.55;68.80
17311;BME280;8773;43.300;0.394;2023-03-13T07:24:10;99170.22;;;12.74;68.16
17311;BME280;8773;43.300;0.394;2023-03-13T07:26:39;99170.22;;;12.89;68.35
17311;BME280;8773;43.300;0.394;2023-03-13T07:29:19;99164.03;;;13.18;67.47
17311;BME280;8773;43.300;0.394;2023-03-13T07:31:49;99156.28;;;13.45;66.82
17311;BME280;8773;43.300;0.394;2023-03-13T07:34:17;99162.66;;;13.58;65.98
17311;BME280;8773;43.300;0.394;2023-03-13T07:36:45;99164.09;;;13.76;65.68
17311;BME280;8773;43.300;0.394;2023-03-13T07:39:13;99162.59;;;13.73;65.30
17311;BME280;8773;43.300;0.394;2023-03-13T07:41:41;99162.47;;;13.60;65.69
17311;BME280;8773;43.300;0.394;2023-03-13T07:44:09;99163.47;;;13.08;66.84
17311;BME280;8773;43.300;0.394;2023-03-13T07:46:37;99166.25;;;13.15;66.88
17311;BME280;8773;43.300;0.394;2023-03-13T07:49:07;99163.38;;;13.16;66.85
17311;BME280;8773;43.300;0.394;2023-03-13T07:51:35;99160.97;;;13.06;66.87
17311;BME280;8773;43.300;0.394;2023-03-13T07:54:09;99149.69;;;13.11;66.94
17311;BME280;8773;43.300;0.394;2023-03-13T07:56:38;99152.19;;;13.13;66.92
17311;BME280;8773;43.300;0.394;2023-03-13T07:59:06;99144.16;;;13.13;66.71
17311;BME280;8773;43.300;0.394;2023-03-13T08:01:35;99145.25;;;13.03;67.32
17311;BME280;8773;43.300;0.394;2023-03-13T08:04:03;99137.03;;;13.05;66.92
17311;BME280;8773;43.300;0.394;2023-03-13T08:06:33;99148.97;;;13.02;67.45
17311;BME280;8773;43.300;0.394;2023-03-13T08:09:02;99149.41;;;12.62;68.66
17311;BME280;8773;43.300;0.394;2023-03-13T08:11:31;99160.72;;;12.72;68.58
17311;BME280;8773;43.300;0.394;2023-03-13T08:13:59;99155.34;;;13.01;68.19
17311;BME280;8773;43.300;0.394;2023-03-13T08:16:28;99151.53;;;13.25;67.11
17311;BME280;8773;43.300;0.394;2023-03-13T08:18:57;99145.78;;;13.28;67.07
17311;BME280;8773;43.300;0.394;2023-03-13T08:21:27;99153.72;;;13.36;66.35
17311;BME280;8773;43.300;0.394;2023-03-13T08:23:58;99149.28;;;13.29;67.21
17311;BME280;8773;43.300;0.394;2023-03-13T08:26:28;99145.75;;;13.43;67.12
17311;BME280;8773;43.300;0.394;2023-03-13T08:28:57;99133.25;;;13.50;67.15
17311;BME280;8773;43.300;0.394;2023-03-13T08:31:27;99127.44;;;13.47;66.94
17311;BME280;8773;43.300;0.394;2023-03-13T08:33:56;99127.44;;;13.47;66.78
17311;BME280;8773;43.300;0.394;2023-03-13T08:36:26;99137.47;;;13.59;66.19
17311;BME280;8773;43.300;0.394;2023-03-13T08:38:59;99129.63;;;13.58;66.49
17311;BME280;8773;43.300;0.394;2023-03-13T08:41:29;99128.16;;;13.55;66.89
17311;BME280;8773;43.300;0.394;2023-03-13T08:43:59;99126.69;;;13.53;66.79
17311;BME280;8773;43.300;0.394;2023-03-13T08:46:28;99113.66;;;13.50;66.93
17311;BME280;8773;43.300;0.394;2023-03-13T08:48:57;99115.16;;;13.37;67.33
17311;BME280;8773;43.300;0.394;2023-03-13T08:51:26;99105.16;;;13.46;67.53
17311;BME280;8773;43.300;0.394;2023-03-13T08:53:55;99115.16;;;13.73;66.46
17311;BME280;8773;43.300;0.394;2023-03-13T08:56:28;99107.22;;;13.65;65.96
17311;BME280;8773;43.300;0.394;2023-03-13T08:58:58;99101.47;;;13.90;65.79
17311;BME280;8773;43.300;0.394;2023-03-13T09:01:28;99098.66;;;13.98;65.61
17311;BME280;8773;43.300;0.394;2023-03-13T09:03:57;99101.09;;;13.93;64.65
17311;BME280;8773;43.300;0.394;2023-03-13T09:06:29;99099.84;;;14.17;64.30
17311;BME280;8773;43.300;0.394;2023-03-13T09:08:57;99092.72;;;14.30;64.02
17311;BME280;8773;43.300;0.394;2023-03-13T09:11:27;99087.38;;;14.65;63.45
17311;BME280;8773;43.300;0.394;2023-03-13T09:13:56;99078.69;;;14.97;62.50
17311;BME280;8773;43.300;0.394;2023-03-13T09:16:27;99067.09;;;15.03;61.03
17311;BME280;8773;43.300;0.394;2023-03-13T09:18:56;99062.81;;;15.16;60.19
17311;BME280;8773;43.300;0.394;2023-03-13T09:21:26;99062.84;;;15.22;59.88
17311;BME280;8773;43.300;0.394;2023-03-13T09:23:54;99051.94;;;15.37;60.17
17311;BME280;8773;43.300;0.394;2023-03-13T09:26:23;99045.38;;;15.79;58.52
17311;BME280;8773;43.300;0.394;2023-03-13T09:28:53;99039.31;;;16.30;57.46
17311;BME280;8773;43.300;0.394;2023-03-13T09:31:23;99024.94;;;16.69;57.04
17311;BME280;8773;43.300;0.394;2023-03-13T09:33:52;99020.59;;;16.68;56.21
17311;BME280;8773;43.300;0.394;2023-03-13T09:36:21;99019.03;;;16.98;54.81
17311;BME280;8773;43.300;0.394;2023-03-13T09:38:51;99017.22;;;17.24;54.79
17311;BME280;8773;43.300;0.394;2023-03-13T09:41:26;99010.06;;;17.43;52.34
17311;BME280;8773;43.300;0.394;2023-03-13T09:44:02;99002.28;;;17.21;51.36
17311;BME280;8773;43.300;0.394;2023-03-13T09:46:37;99003.69;;;17.30;50.32
17311;BME280;8773;43.300;0.394;2023-03-13T09:49:13;98995.97;;;17.09;50.56
17311;BME280;8773;43.300;0.394;2023-03-13T09:51:47;98995.91;;;17.47;51.09
17311;BME280;8773;43.300;0.394;2023-03-13T09:54:23;98988.53;;;17.92;50.98
17311;BME280;8773;43.300;0.394;2023-03-13T09:56:56;98979.47;;;18.23;49.10
17311;BME280;8773;43.300;0.394;2023-03-13T09:59:32;98976.34;;;18.45;48.60
17311;BME280;8773;43.300;0.394;2023-03-13T10:02:16;98975.91;;;18.48;47.67
17311;BME280;8773;43.300;0.394;2023-03-13T10:04:50;98971.31;;;18.30;47.15
17311;BME280;8773;43.300;0.394;2023-03-13T10:07:20;98970.34;;;18.61;47.48
17311;BME280;8773;43.300;0.394;2023-03-13T10:09:48;98961.03;;;18.75;46.67
17311;BME280;8773;43.300;0.394;2023-03-13T10:12:18;98955.44;;;18.88;47.22
17311;BME280;8773;43.300;0.394;2023-03-13T10:14:56;98958.00;;;19.13;46.97
17311;BME280;8773;43.300;0.394;2023-03-13T10:17:31;98945.78;;;19.22;47.21
17311;BME280;8773;43.300;0.394;2023-03-13T10:20:02;98946.56;;;19.41;46.49
17311;BME280;8773;43.300;0.394;2023-03-13T10:22:41;98930.09;;;19.54;46.24
17311;BME280;8773;43.300;0.394;2023-03-13T10:25:23;98928.22;;;19.55;46.24
17311;BME280;8773;43.300;0.394;2023-03-13T10:27:53;98922.94;;;19.72;46.09
17311;BME280;8773;43.300;0.394;2023-03-13T10:30:25;98914.00;;;19.71;46.27
17311;BME280;8773;43.300;0.394;2023-03-13T10:32:58;98909.84;;;19.80;46.77
17311;BME280;8773;43.300;0.394;2023-03-13T10:35:31;98901.38;;;19.88;44.75
17311;BME280;8773;43.300;0.394;2023-03-13T10:38:05;98904.66;;;20.02;44.37
17311;BME280;8773;43.300;0.394;2023-03-13T10:40:33;98907.34;;;20.25;43.20
17311;BME280;8773;43.300;0.394;2023-03-13T10:43:04;98895.31;;;20.45;41.88
17311;BME280;8773;43.300;0.394;2023-03-13T10:45:35;98898.81;;;20.57;41.18
17311;BME280;8773;43.300;0.394;2023-03-13T10:48:11;98894.56;;;20.61;42.45
17311;BME280;8773;43.300;0.394;2023-03-13T10:50:42;98895.19;;;20.68;41.67
17311;BME280;8773;43.300;0.394;2023-03-13T10:53:21;98886.69;;;20.76;41.11
17311;BME280;8773;43.300;0.394;2023-03-13T10:55:51;98874.03;;;20.82;41.50
17311;BME280;8773;43.300;0.394;2023-03-13T10:58:22;98881.66;;;20.96;41.42
17311;BME280;8773;43.300;0.394;2023-03-13T11:01:09;98880.59;;;21.14;41.75
17311;BME280;8773;43.300;0.394;2023-03-13T11:03:41;98863.44;;;21.25;41.01
17311;BME280;8773;43.300;0.394;2023-03-13T11:06:24;98857.91;;;21.37;40.31
17311;BME280;8773;43.300;0.394;2023-03-13T11:09:02;98853.72;;;21.46;40.81
17311;BME280;8773;43.300;0.394;2023-03-13T11:11:30;98841.84;;;21.52;41.45
17311;BME280;8773;43.300;0.394;2023-03-13T11:14:13;98839.44;;;21.56;42.25
17311;BME280;8773;43.300;0.394;2023-03-13T11:16:47;98847.78;;;21.66;42.85
17311;BME280;8773;43.300;0.394;2023-03-13T11:19:28;98840.47;;;21.67;41.19
17311;BME280;8773;43.300;0.394;2023-03-13T11:22:12;98830.47;;;21.89;40.21
17311;BME280;8773;43.300;0.394;2023-03-13T11:24:45;98819.50;;;22.06;40.65
17311;BME280;8773;43.300;0.394;2023-03-13T11:27:23;98809.72;;;22.26;39.98
17311;BME280;8773;43.300;0.394;2023-03-13T11:30:03;98817.16;;;22.58;40.14
17311;BME280;8773;43.300;0.394;2023-03-13T11:32:41;98812.00;;;22.88;38.83
17311;BME280;8773;43.300;0.394;2023-03-13T11:35:22;98802.53;;;23.28;38.72
17311;BME280;8773;43.300;0.394;2023-03-13T11:37:56;98798.91;;;23.54;36.90
17311;BME280;8773;43.300;0.394;2023-03-13T11:40:29;98776.09;;;23.71;35.85
17311;BME280;8773;43.300;0.394;2023-03-13T11:43:16;98768.25;;;23.74;34.41
17311;BME280;8773;43.300;0.394;2023-03-13T11:46:04;98759.84;;;23.86;34.51
17311;BME280;8773;43.300;0.394;2023-03-13T11:48:47;98751.13;;;23.89;34.18
17311;BME280;8773;43.300;0.394;2023-03-13T11:51:23;98746.84;;;24.03;33.57
17311;BME280;8773;43.300;0.394;2023-03-13T11:54:06;98739.78;;;24.27;33.17
17311;BME280;8773;43.300;0.394;2023-03-13T12:04:23;98744.53;;;24.68;nan
17311;BME280;8773;43.300;0.394;2023-03-13T12:06:57;98718.56;;;24.60;nan
17311;BME280;8773;43.300;0.394;2023-03-13T12:09:33;98723.22;;;24.59;nan
17311;BME280;8773;43.300;0.394;2023-03-13T12:12:10;98719.69;;;24.64;nan
17311;BME280;8773;43.300;0.394;2023-03-13T12:14:43;98714.75;;;24.66;nan
17311;BME280;8773;43.300;0.394;2023-03-13T12:17:24;98707.94;;;24.64;nan
17311;BME280;8773;43.300;0.394;2023-03-13T12:19:59;98697.28;;;24.77;nan
17311;BME280;8773;43.300;0.394;2023-03-13T12:22:35;98695.13;;;24.89;nan
17311;BME280;8773;43.300;0.394;2023-03-13T12:25:10;98684.19;;;24.89;nan
17311;BME280;8773;43.300;0.394;2023-03-13T12:27:42;98681.19;;;24.91;nan
17311;BME280;8773;43.300;0.394;2023-03-13T12:30:21;98672.97;;;24.96;nan
17311;BME280;8773;43.300;0.394;2023-03-13T12:32:56;98657.97;;;24.83;nan
17311;BME280;8773;43.300;0.394;2023-03-13T12:35:29;98650.59;;;24.89;nan
17311;BME280;8773;43.300;0.394;2023-03-13T12:38:03;98642.13;;;24.90;nan
17311;BME280;8773;43.300;0.394;2023-03-13T12:40:38;98645.13;;;24.89;nan
17311;BME280;8773;43.300;0.394;2023-03-13T12:43:11;98629.84;;;24.83;nan
17311;BME280;8773;43.300;0.394;2023-03-13T12:45:53;98623.84;;;24.86;nan
17311;BME280;8773;43.300;0.394;2023-03-13T12:48:52;98632.25;;;25.05;nan
17311;BME280;8773;43.300;0.394;2023-03-13T12:51:36;98619.16;;;24.97;nan
17311;BME280;8773;43.300;0.394;2023-03-13T12:54:28;98611.19;;;25.31;nan
17311;BME280;8773;43.300;0.394;2023-03-13T12:57:09;98603.81;;;25.26;nan
17311;BME280;8773;43.300;0.394;2023-03-13T12:59:41;98592.66;;;25.12;nan
17311;BME280;8773;43.300;0.394;2023-03-13T13:02:16;98580.06;;;25.16;nan
17311;BME280;8773;43.300;0.394;2023-03-13T13:04:47;98590.22;;;25.06;nan
17311;BME280;8773;43.300;0.394;2023-03-13T13:07:23;98581.75;;;25.07;nan
17311;BME280;8773;43.300;0.394;2023-03-13T13:10:02;98575.16;;;25.03;nan
17311;BME280;8773;43.300;0.394;2023-03-13T13:12:31;98577.63;;;25.00;nan
17311;BME280;8773;43.300;0.394;2023-03-13T13:15:24;98571.00;;;25.31;nan
17311;BME280;8773;43.300;0.394;2023-03-13T13:17:59;98567.91;;;25.43;nan
17311;BME280;8773;43.300;0.394;2023-03-13T13:20:38;98552.28;;;25.53;nan
17311;BME280;8773;43.300;0.394;2023-03-13T13:23:27;98546.13;;;25.82;nan
17311;BME280;8773;43.300;0.394;2023-03-13T13:32:35;98511.47;;;26.06;nan
17311;BME280;8773;43.300;0.394;2023-03-13T13:35:17;98512.19;;;26.17;nan
17311;BME280;8773;43.300;0.394;2023-03-13T13:37:46;98504.06;;;26.07;nan
17311;BME280;8773;43.300;0.394;2023-03-13T13:40:22;98502.31;;;25.87;nan
17311;BME280;8773;43.300;0.394;2023-03-13T13:42:54;98483.44;;;25.46;nan
17311;BME280;8773;43.300;0.394;2023-03-13T13:45:25;98493.69;;;25.31;nan
17311;BME280;8773;43.300;0.394;2023-03-13T13:51:20;98498.00;;;24.77;nan